sensor_id;sensor_type;location;lat;lon;timestamp;temperature;humidity
7496;DHT22;3789;47.064;15.482;2023-09-19T00:01:24;18.70;99.90
7496;DHT22;3789;47.064;15.482;2023-09-19T00:04:00;18.70;99.90
7496;DHT22;3789;47.064;15.482;2023-09-19T00:06:31;18.80;99.90
7496;DHT22;3789;47.064;15.482;2023-09-19T00:08:59;18.90;99.90
7496;DHT22;3789;47.064;15.482;2023-09-19T00:11:28;18.90;99.90
7496;DHT22;3789;47.064;15.482;2023-09-19T00:13:57;18.90;99.90
7496;DHT22;3789;47.064;15.482;2023-09-19T00:16:29;18.90;99.90
7496;DHT22;3789;47.064;15.482;2023-09-19T00:18:59;18.80;99.90
7496;DHT22;3789;47.064;15.482;2023-09-19T00:21:32;18.90;99.90
7496;DHT22;3789;47.064;15.482;2023-09-19T00:24:02;18.90;99.90
7496;DHT22;3789;47.064;15.482;2023-09-19T00:26:40;18.90;99.90
7496;DHT22;3789;47.064;15.482;2023-09-19T00:29:12;18.90;99.90
7496;DHT22;3789;47.064;15.482;2023-09-19T00:31:45;18.90;99.90
7496;DHT22;3789;47.064;15.482;2023-09-19T00:34:14;18.80;99.90
7496;DHT22;3789;47.064;15.482;2023-09-19T00:36:43;18.70;99.90
7496;DHT22;3789;47.064;15.482;2023-09-19T00:39:11;18.70;99.90
7496;DHT22;3789;47.064;15.482;2023-09-19T00:41:41;18.70;99.90
7496;DHT22;3789;47.064;15.482;2023-09-19T00:44:16;18.70;99.90
7496;DHT22;3789;47.064;15.482;2023-09-19T00:46:47;18.60;99.90
7496;DHT22;3789;47.064;15.482;2023-09-19T00:49:17;18.50;99.90
7496;DHT22;3789;47.064;15.482;2023-09-19T00:51:50;18.50;99.90
7496;DHT22;3789;47.064;15.482;2023-09-19T00:54:25;18.40;99.90
7496;DHT22;3789;47.064;15.482;2023-09-19T00:56:57;18.50;99.90
7496;DHT22;3789;47.064;15.482;2023-09-19T00:59:25;18.50;99.90
7496;DHT22;3789;47.064;15.482;2023-09-19T01:01:55;18.50;99.90
7496;DHT22;3789;47.064;15.482;2023-09-19T01:04:26;18.50;99.90
7496;DHT22;3789;47.064;15.482;2023-09-19T01:07:04;18.60;99.90
7496;DHT22;3789;47.064;15.482;2023-09-19T01:09:35;18.50;99.90
7496;DHT22;3789;47.064;15.482;2023-09-19T01:12:06;18.50;99.90
7496;DHT22;3789;47.064;15.482;2023-09-19T01:14:55;18.40;99.90
7496;DHT22;3789;47.064;15.482;2023-09-19T01:17:34;18.50;99.90
7496;DHT22;3789;47.064;15.482;2023-09-19T01:21:11;18.50;99.90
7496;DHT22;3789;47.064;15.482;2023-09-19T01:30:23;18.20;99.90
7496;DHT22;3789;47.064;15.482;2023-09-19T01:32:55;18.30;99.90
7496;DHT22;3789;47.064;15.482;2023-09-19T01:35:28;18.20;99.90
7496;DHT22;3789;47.064;15.482;2023-09-19T01:38:07;18.20;99.90
7496;DHT22;3789;47.064;15.482;2023-09-19T01:40:42;18.20;99.90
7496;DHT22;3789;47.064;15.482;2023-09-19T01:43:27;18.10;99.90
7496;DHT22;3789;47.064;15.482;2023-09-19T01:46:35;18.10;99.90
7496;DHT22;3789;47.064;15.482;2023-09-19T01:49:32;18.20;99.90
7496;DHT22;3789;47.064;15.482;2023-09-19T01:52:15;18.20;99.90
7496;DHT22;3789;47.064;15.482;2023-09-19T01:54:52;18.30;99.90
7496;DHT22;3789;47.064;15.482;2023-09-19T01:57:41;18.30;99.90
7496;DHT22;3789;47.064;15.482;2023-09-19T02:00:27;18.20;99.90
7496;DHT22;3789;47.064;15.482;2023-09-19T02:02:59;18.10;99.90
7496;DHT22;3789;47.064;15.482;2023-09-19T02:05:34;18.10;99.90
7496;DHT22;3789;47.064;15.482;2023-09-19T02:08:04;18.10;99.90
7496;DHT22;3789;47.064;15.482;2023-09-19T02:10:33;18.00;99.90
7496;DHT22;3789;47.064;15.482;2023-09-19T02:13:01;18.00;99.90
7496;DHT22;3789;47.064;15.482;2023-09-19T02:15:32;18.00;99.90
7496;DHT22;3789;47.064;15.482;2023-09-19T02:18:02;18.00;99.90
7496;DHT22;3789;47.064;15.482;2023-09-19T02:20:34;18.00;99.90
7496;DHT22;3789;47.064;15.482;2023-09-19T02:23:03;18.00;99.90
7496;DHT22;3789;47.064;15.482;2023-09-19T02:25:41;18.00;99.90
7496;DHT22;3789;47.064;15.482;2023-09-19T02:28:12;18.30;99.90
7496;DHT22;3789;47.064;15.482;2023-09-19T02:30:43;18.40;99.90
7496;DHT22;3789;47.064;15.482;2023-09-19T02:33:17;18.40;99.90
7496;DHT22;3789;47.064;15.482;2023-09-19T02:35:47;18.30;99.90
7496;DHT22;3789;47.064;15.482;2023-09-19T02:38:17;18.30;99.90
7496;DHT22;3789;47.064;15.482;2023-09-19T02:40:51;18.40;99.90
7496;DHT22;3789;47.064;15.482;2023-09-19T02:43:21;18.50;99.90
7496;DHT22;3789;47.064;15.482;2023-09-19T02:45:51;18.40;99.90
7496;DHT22;3789;47.064;15.482;2023-09-19T02:48:29;18.30;99.90
7496;DHT22;3789;47.064;15.482;2023-09-19T02:50:59;18.20;99.90
7496;DHT22;3789;47.064;15.482;2023-09-19T02:53:29;18.30;99.90
7496;DHT22;3789;47.064;15.482;2023-09-19T02:56:01;18.40;99.90
7496;DHT22;3789;47.064;15.482;2023-09-19T02:58:33;18.40;99.90
7496;DHT22;3789;47.064;15.482;2023-09-19T03:01:14;18.30;99.90
7496;DHT22;3789;47.064;15.482;2023-09-19T03:03:42;18.30;99.90
7496;DHT22;3789;47.064;15.482;2023-09-19T03:06:11;18.30;99.90
7496;DHT22;3789;47.064;15.482;2023-09-19T03:08:45;18.20;99.90
7496;DHT22;3789;47.064;15.482;2023-09-19T03:11:34;18.20;99.90
7496;DHT22;3789;47.064;15.482;2023-09-19T03:14:03;18.00;99.90
7496;DHT22;3789;47.064;15.482;2023-09-19T03:16:33;18.00;99.90
7496;DHT22;3789;47.064;15.482;2023-09-19T03:19:06;17.90;99.90
7496;DHT22;3789;47.064;15.482;2023-09-19T03:21:37;17.90;99.90
7496;DHT22;3789;47.064;15.482;2023-09-19T03:24:06;17.90;99.90
7496;DHT22;3789;47.064;15.482;2023-09-19T03:26:35;17.90;99.90
7496;DHT22;3789;47.064;15.482;2023-09-19T03:29:05;17.80;99.90
7496;DHT22;3789;47.064;15.482;2023-09-19T03:31:34;17.70;99.90
7496;DHT22;3789;47.064;15.482;2023-09-19T03:34:07;17.70;99.90
7496;DHT22;3789;47.064;15.482;2023-09-19T03:36:36;17.80;99.90
7496;DHT22;3789;47.064;15.482;2023-09-19T03:39:05;17.70;99.90
7496;DHT22;3789;47.064;15.482;2023-09-19T03:41:36;17.70;99.90
7496;DHT22;3789;47.064;15.482;2023-09-19T03:44:04;17.70;99.90
7496;DHT22;3789;47.064;15.482;2023-09-19T03:46:34;17.70;99.90
7496;DHT22;3789;47.064;15.482;2023-09-19T03:49:03;17.70;99.90
7496;DHT22;3789;47.064;15.482;2023-09-19T03:51:33;17.60;99.90
7496;DHT22;3789;47.064;15.482;2023-09-19T03:54:03;17.60;99.90
7496;DHT22;3789;47.064;15.482;2023-09-19T03:56:34;17.60;99.90
7496;DHT22;3789;47.064;15.482;2023-09-19T03:59:03;17.60;99.90
7496;DHT22;3789;47.064;15.482;2023-09-19T04:01:30;17.60;99.90
7496;DHT22;3789;47.064;15.482;2023-09-19T04:04:00;17.60;99.90
7496;DHT22;3789;47.064;15.482;2023-09-19T04:06:45;17.70;99.90
7496;DHT22;3789;47.064;15.482;2023-09-19T04:09:22;17.80;99.90
7496;DHT22;3789;47.064;15.482;2023-09-19T04:11:51;17.90;99.90
7496;DHT22;3789;47.064;15.482;2023-09-19T04:14:21;17.80;99.90
7496;DHT22;3789;47.064;15.482;2023-09-19T04:17:00;17.70;99.90
7496;DHT22;3789;47.064;15.482;2023-09-19T04:19:39;17.60;99.90
7496;DHT22;3789;47.064;15.482;2023-09-19T04:22:11;17.40;99.90
7496;DHT22;3789;47.064;15.482;2023-09-19T04:24:50;17.40;99.90
7496;DHT22;3789;47.064;15.482;2023-09-19T04:27:19;17.40;99.90
7496;DHT22;3789;47.064;15.482;2023-09-19T04:29:48;17.30;99.90
7496;DHT22;3789;47.064;15.482;2023-09-19T04:32:31;17.30;99.90
7496;DHT22;3789;47.064;15.482;2023-09-19T04:35:01;17.30;99.90
7496;DHT22;3789;47.064;15.482;2023-09-19T04:37:37;17.30;99.90
7496;DHT22;3789;47.064;15.482;2023-09-19T04:40:10;17.50;99.90
7496;DHT22;3789;47.064;15.482;2023-09-19T04:42:53;17.50;99.90
7496;DHT22;3789;47.064;15.482;2023-09-19T04:45:27;17.60;99.90
7496;DHT22;3789;47.064;15.482;2023-09-19T04:47:58;17.70;99.90
7496;DHT22;3789;47.064;15.482;2023-09-19T04:50:29;17.70;99.90
7496;DHT22;3789;47.064;15.482;2023-09-19T04:52:59;17.60;99.90
7496;DHT22;3789;47.064;15.482;2023-09-19T04:55:31;17.40;99.90
7496;DHT22;3789;47.064;15.482;2023-09-19T04:58:03;17.30;99.90
7496;DHT22;3789;47.064;15.482;2023-09-19T05:00:33;17.20;99.90
7496;DHT22;3789;47.064;15.482;2023-09-19T05:03:04;17.30;99.90
7496;DHT22;3789;47.064;15.482;2023-09-19T05:05:41;17.20;99.90
7496;DHT22;3789;47.064;15.482;2023-09-19T05:08:18;17.10;99.90
7496;DHT22;3789;47.064;15.482;2023-09-19T05:10:54;17.10;99.90
7496;DHT22;3789;47.064;15.482;2023-09-19T05:13:24;17.20;99.90
7496;DHT22;3789;47.064;15.482;2023-09-19T05:15:53;17.30;99.90
7496;DHT22;3789;47.064;15.482;2023-09-19T05:18:22;17.40;99.90
7496;DHT22;3789;47.064;15.482;2023-09-19T05:20:50;17.20;99.90
7496;DHT22;3789;47.064;15.482;2023-09-19T05:23:19;17.20;99.90
7496;DHT22;3789;47.064;15.482;2023-09-19T05:25:51;17.10;99.90
7496;DHT22;3789;47.064;15.482;2023-09-19T05:28:19;17.10;99.90
7496;DHT22;3789;47.064;15.482;2023-09-19T05:31:02;17.00;99.90
7496;DHT22;3789;47.064;15.482;2023-09-19T05:33:29;16.90;99.90
7496;DHT22;3789;47.064;15.482;2023-09-19T05:36:02;16.90;99.90
7496;DHT22;3789;47.064;15.482;2023-09-19T05:38:34;16.90;99.90
7496;DHT22;3789;47.064;15.482;2023-09-19T05:41:05;17.20;99.90
7496;DHT22;3789;47.064;15.482;2023-09-19T05:43:39;17.30;99.90
7496;DHT22;3789;47.064;15.482;2023-09-19T05:46:10;17.40;99.90
7496;DHT22;3789;47.064;15.482;2023-09-19T05:48:41;17.30;99.90
7496;DHT22;3789;47.064;15.482;2023-09-19T05:51:10;17.10;99.90
7496;DHT22;3789;47.064;15.482;2023-09-19T05:53:43;17.00;99.90
7496;DHT22;3789;47.064;15.482;2023-09-19T05:56:13;17.00;99.90
7496;DHT22;3789;47.064;15.482;2023-09-19T05:58:49;17.00;99.90
7496;DHT22;3789;47.064;15.482;2023-09-19T06:01:24;17.10;99.90
7496;DHT22;3789;47.064;15.482;2023-09-19T06:03:53;17.20;99.90
7496;DHT22;3789;47.064;15.482;2023-09-19T06:06:34;17.30;99.90
7496;DHT22;3789;47.064;15.482;2023-09-19T06:09:07;17.40;99.90
7496;DHT22;3789;47.064;15.482;2023-09-19T06:11:43;17.50;99.90
7496;DHT22;3789;47.064;15.482;2023-09-19T06:14:11;17.70;99.90
7496;DHT22;3789;47.064;15.482;2023-09-19T06:16:41;17.60;99.90
7496;DHT22;3789;47.064;15.482;2023-09-19T06:19:12;17.60;99.90
7496;DHT22;3789;47.064;15.482;2023-09-19T06:21:39;17.50;99.90
7496;DHT22;3789;47.064;15.482;2023-09-19T06:24:12;17.70;99.90
7496;DHT22;3789;47.064;15.482;2023-09-19T06:26:41;17.70;99.90
7496;DHT22;3789;47.064;15.482;2023-09-19T06:29:09;18.00;99.90
7496;DHT22;3789;47.064;15.482;2023-09-19T06:31:39;18.10;99.90
7496;DHT22;3789;47.064;15.482;2023-09-19T06:34:15;18.10;99.90
7496;DHT22;3789;47.064;15.482;2023-09-19T06:36:56;18.00;99.90
7496;DHT22;3789;47.064;15.482;2023-09-19T06:39:33;18.00;99.90
7496;DHT22;3789;47.064;15.482;2023-09-19T06:42:02;17.90;99.90
7496;DHT22;3789;47.064;15.482;2023-09-19T06:44:34;18.00;99.90
7496;DHT22;3789;47.064;15.482;2023-09-19T06:47:01;18.10;99.90
7496;DHT22;3789;47.064;15.482;2023-09-19T06:49:31;18.00;99.90
7496;DHT22;3789;47.064;15.482;2023-09-19T06:52:01;18.00;99.90
7496;DHT22;3789;47.064;15.482;2023-09-19T06:54:31;18.00;99.90
7496;DHT22;3789;47.064;15.482;2023-09-19T06:57:07;18.00;99.90
7496;DHT22;3789;47.064;15.482;2023-09-19T06:59:38;18.00;99.90
7496;DHT22;3789;47.064;15.482;2023-09-19T07:02:07;18.00;99.90
7496;DHT22;3789;47.064;15.482;2023-09-19T07:04:38;18.00;99.90
7496;DHT22;3789;47.064;15.482;2023-09-19T07:07:09;18.10;99.90
7496;DHT22;3789;47.064;15.482;2023-09-19T07:09:38;18.30;99.90
7496;DHT22;3789;47.064;15.482;2023-09-19T07:12:07;18.40;99.90
7496;DHT22;3789;47.064;15.482;2023-09-19T07:14:46;18.40;99.90
7496;DHT22;3789;47.064;15.482;2023-09-19T07:17:15;18.40;99.90
7496;DHT22;3789;47.064;15.482;2023-09-19T07:19:46;18.50;99.90
7496;DHT22;3789;47.064;15.482;2023-09-19T07:22:26;18.40;99.90
7496;DHT22;3789;47.064;15.482;2023-09-19T07:24:55;18.40;99.90
7496;DHT22;3789;47.064;15.482;2023-09-19T07:27:28;18.40;99.90
7496;DHT22;3789;47.064;15.482;2023-09-19T07:30:00;18.40;99.90
7496;DHT22;3789;47.064;15.482;2023-09-19T07:32:29;18.40;99.90
7496;DHT22;3789;47.064;15.482;2023-09-19T07:35:03;18.30;99.90
7496;DHT22;3789;47.064;15.482;2023-09-19T07:37:40;18.30;99.90
7496;DHT22;3789;47.064;15.482;2023-09-19T07:40:12;18.30;99.90
7496;DHT22;3789;47.064;15.482;2023-09-19T07:42:42;18.40;99.90
7496;DHT22;3789;47.064;15.482;2023-09-19T07:45:16;18.50;99.90
7496;DHT22;3789;47.064;15.482;2023-09-19T07:47:47;18.50;99.90
7496;DHT22;3789;47.064;15.482;2023-09-19T07:50:20;18.60;99.90
7496;DHT22;3789;47.064;15.482;2023-09-19T07:52:51;18.60;99.90
7496;DHT22;3789;47.064;15.482;2023-09-19T07:55:25;18.50;99.90
7496;DHT22;3789;47.064;15.482;2023-09-19T07:57:54;18.70;99.90
7496;DHT22;3789;47.064;15.482;2023-09-19T08:00:23;18.90;99.90
7496;DHT22;3789;47.064;15.482;2023-09-19T08:02:50;19.20;99.90
7496;DHT22;3789;47.064;15.482;2023-09-19T08:05:37;19.40;99.90
7496;DHT22;3789;47.064;15.482;2023-09-19T08:11:45;20.20;99.90
7496;DHT22;3789;47.064;15.482;2023-09-19T08:14:32;20.60;99.90
7496;DHT22;3789;47.064;15.482;2023-09-19T08:17:21;20.70;99.90
7496;DHT22;3789;47.064;15.482;2023-09-19T08:19:56;21.00;99.90
7496;DHT22;3789;47.064;15.482;2023-09-19T08:22:39;21.20;99.90
7496;DHT22;3789;47.064;15.482;2023-09-19T08:25:44;21.50;99.90
7496;DHT22;3789;47.064;15.482;2023-09-19T08:28:37;21.50;99.90
7496;DHT22;3789;47.064;15.482;2023-09-19T08:31:17;21.50;99.90
7496;DHT22;3789;47.064;15.482;2023-09-19T08:34:34;21.30;99.90
7496;DHT22;3789;47.064;15.482;2023-09-19T08:37:17;21.40;99.90
7496;DHT22;3789;47.064;15.482;2023-09-19T08:40:10;21.50;99.90
7496;DHT22;3789;47.064;15.482;2023-09-19T08:43:08;21.60;99.90
7496;DHT22;3789;47.064;15.482;2023-09-19T08:49:32;21.30;99.90
7496;DHT22;3789;47.064;15.482;2023-09-19T08:52:42;21.40;99.90
7496;DHT22;3789;47.064;15.482;2023-09-19T08:55:19;21.60;99.90
7496;DHT22;3789;47.064;15.482;2023-09-19T08:57:52;22.10;99.90
7496;DHT22;3789;47.064;15.482;2023-09-19T09:00:33;22.20;99.90
7496;DHT22;3789;47.064;15.482;2023-09-19T09:03:06;22.10;99.90
7496;DHT22;3789;47.064;15.482;2023-09-19T09:05:53;22.00;99.90
7496;DHT22;3789;47.064;15.482;2023-09-19T09:08:24;22.10;99.90
7496;DHT22;3789;47.064;15.482;2023-09-19T09:10:54;22.30;99.90
7496;DHT22;3789;47.064;15.482;2023-09-19T09:13:26;22.30;99.90
7496;DHT22;3789;47.064;15.482;2023-09-19T09:16:00;22.20;99.90
7496;DHT22;3789;47.064;15.482;2023-09-19T09:18:39;22.30;99.90
7496;DHT22;3789;47.064;15.482;2023-09-19T09:21:13;22.60;99.90
7496;DHT22;3789;47.064;15.482;2023-09-19T09:23:44;22.70;99.90
7496;DHT22;3789;47.064;15.482;2023-09-19T09:26:17;22.70;99.90
7496;DHT22;3789;47.064;15.482;2023-09-19T09:28:52;22.60;99.90
7496;DHT22;3789;47.064;15.482;2023-09-19T09:31:26;22.70;99.90
7496;DHT22;3789;47.064;15.482;2023-09-19T09:33:57;22.90;99.90
7496;DHT22;3789;47.064;15.482;2023-09-19T09:36:38;22.80;99.90
7496;DHT22;3789;47.064;15.482;2023-09-19T09:39:10;22.60;99.90
7496;DHT22;3789;47.064;15.482;2023-09-19T09:41:53;22.50;99.90
7496;DHT22;3789;47.064;15.482;2023-09-19T09:44:23;22.50;99.90
7496;DHT22;3789;47.064;15.482;2023-09-19T09:47:00;22.40;99.90
7496;DHT22;3789;47.064;15.482;2023-09-19T09:49:48;22.40;99.90
7496;DHT22;3789;47.064;15.482;2023-09-19T09:52:23;22.30;99.90
7496;DHT22;3789;47.064;15.482;2023-09-19T09:55:03;22.20;99.90
7496;DHT22;3789;47.064;15.482;2023-09-19T09:57:36;22.10;99.90
7496;DHT22;3789;47.064;15.482;2023-09-19T10:00:10;22.10;99.90
7496;DHT22;3789;47.064;15.482;2023-09-19T10:02:39;22.00;99.90
7496;DHT22;3789;47.064;15.482;2023-09-19T10:08:11;21.80;99.90
7496;DHT22;3789;47.064;15.482;2023-09-19T10:10:51;21.90;99.90
7496;DHT22;3789;47.064;15.482;2023-09-19T10:13:42;22.20;99.90
7496;DHT22;3789;47.064;15.482;2023-09-19T10:16:16;22.50;99.90
7496;DHT22;3789;47.064;15.482;2023-09-19T10:18:50;22.80;99.90
7496;DHT22;3789;47.064;15.482;2023-09-19T10:21:21;22.90;99.90
7496;DHT22;3789;47.064;15.482;2023-09-19T10:23:58;22.80;99.90
7496;DHT22;3789;47.064;15.482;2023-09-19T10:26:34;23.00;99.90
7496;DHT22;3789;47.064;15.482;2023-09-19T10:29:14;23.10;99.90
7496;DHT22;3789;47.064;15.482;2023-09-19T10:31:47;23.20;99.90
7496;DHT22;3789;47.064;15.482;2023-09-19T10:34:23;23.10;99.90
7496;DHT22;3789;47.064;15.482;2023-09-19T10:36:54;23.10;99.90
7496;DHT22;3789;47.064;15.482;2023-09-19T10:39:25;23.10;99.90
7496;DHT22;3789;47.064;15.482;2023-09-19T10:41:55;23.00;99.90
7496;DHT22;3789;47.064;15.482;2023-09-19T10:44:27;23.10;99.90
7496;DHT22;3789;47.064;15.482;2023-09-19T10:46:59;23.20;99.90
7496;DHT22;3789;47.064;15.482;2023-09-19T10:49:48;23.10;99.90
7496;DHT22;3789;47.064;15.482;2023-09-19T10:52:23;22.90;99.90
7496;DHT22;3789;47.064;15.482;2023-09-19T10:54:58;23.00;99.90
7496;DHT22;3789;47.064;15.482;2023-09-19T10:57:32;23.20;99.90
7496;DHT22;3789;47.064;15.482;2023-09-19T11:00:07;23.30;99.90
7496;DHT22;3789;47.064;15.482;2023-09-19T11:03:23;23.20;99.90
7496;DHT22;3789;47.064;15.482;2023-09-19T11:06:14;23.10;99.90
7496;DHT22;3789;47.064;15.482;2023-09-19T11:09:02;23.10;99.90
7496;DHT22;3789;47.064;15.482;2023-09-19T11:11:51;23.20;99.90
7496;DHT22;3789;47.064;15.482;2023-09-19T11:14:39;23.40;99.90
7496;DHT22;3789;47.064;15.482;2023-09-19T11:17:38;23.40;99.90
7496;DHT22;3789;47.064;15.482;2023-09-19T11:20:18;23.40;99.90
7496;DHT22;3789;47.064;15.482;2023-09-19T11:23:21;23.40;99.90
7496;DHT22;3789;47.064;15.482;2023-09-19T11:25:51;23.50;99.90
7496;DHT22;3789;47.064;15.482;2023-09-19T11:28:35;23.50;99.90
7496;DHT22;3789;47.064;15.482;2023-09-19T11:40:06;23.50;99.90
7496;DHT22;3789;47.064;15.482;2023-09-19T11:42:48;23.50;99.90
7496;DHT22;3789;47.064;15.482;2023-09-19T11:48:18;23.40;99.90
7496;DHT22;3789;47.064;15.482;2023-09-19T11:50:49;23.50;99.90
7496;DHT22;3789;47.064;15.482;2023-09-19T11:53:18;23.60;99.90
7496;DHT22;3789;47.064;15.482;2023-09-19T11:55:48;23.30;99.90
7496;DHT22;3789;47.064;15.482;2023-09-19T11:58:19;23.10;99.90
7496;DHT22;3789;47.064;15.482;2023-09-19T12:00:58;22.80;99.90
7496;DHT22;3789;47.064;15.482;2023-09-19T12:03:29;22.80;99.90
7496;DHT22;3789;47.064;15.482;2023-09-19T12:06:16;22.90;99.90
7496;DHT22;3789;47.064;15.482;2023-09-19T12:08:47;23.20;99.90
7496;DHT22;3789;47.064;15.482;2023-09-19T12:11:17;23.30;99.90
7496;DHT22;3789;47.064;15.482;2023-09-19T12:13:49;23.30;99.90
7496;DHT22;3789;47.064;15.482;2023-09-19T12:16:24;23.30;99.90
7496;DHT22;3789;47.064;15.482;2023-09-19T12:18:56;23.40;99.90
7496;DHT22;3789;47.064;15.482;2023-09-19T12:21:32;23.40;99.90
7496;DHT22;3789;47.064;15.482;2023-09-19T12:24:15;23.60;99.90
7496;DHT22;3789;47.064;15.482;2023-09-19T12:26:47;23.70;99.90
7496;DHT22;3789;47.064;15.482;2023-09-19T12:29:21;23.70;99.90
7496;DHT22;3789;47.064;15.482;2023-09-19T12:31:59;23.60;99.90
7496;DHT22;3789;47.064;15.482;2023-09-19T12:34:35;23.30;99.90
7496;DHT22;3789;47.064;15.482;2023-09-19T12:37:11;23.30;99.90
7496;DHT22;3789;47.064;15.482;2023-09-19T12:39:45;23.50;99.90
7496;DHT22;3789;47.064;15.482;2023-09-19T12:42:23;23.50;99.90
7496;DHT22;3789;47.064;15.482;2023-09-19T12:44:59;23.70;99.90
7496;DHT22;3789;47.064;15.482;2023-09-19T12:47:29;23.70;99.90
7496;DHT22;3789;47.064;15.482;2023-09-19T12:50:17;23.80;99.90
7496;DHT22;3789;47.064;15.482;2023-09-19T12:52:53;23.70;99.90
7496;DHT22;3789;47.064;15.482;2023-09-19T12:55:29;23.90;99.90
7496;DHT22;3789;47.064;15.482;2023-09-19T12:58:21;24.10;99.90
7496;DHT22;3789;47.064;15.482;2023-09-19T13:00:53;24.10;99.90
7496;DHT22;3789;47.064;15.482;2023-09-19T13:03:26;23.70;99.90
7496;DHT22;3789;47.064;15.482;2023-09-19T13:06:06;23.50;99.90
7496;DHT22;3789;47.064;15.482;2023-09-19T13:08:40;23.60;99.90
7496;DHT22;3789;47.064;15.482;2023-09-19T13:11:36;23.70;99.90
7496;DHT22;3789;47.064;15.482;2023-09-19T13:14:25;23.90;99.90
7496;DHT22;3789;47.064;15.482;2023-09-19T13:17:11;24.10;99.90
7496;DHT22;3789;47.064;15.482;2023-09-19T13:19:51;24.40;99.90
7496;DHT22;3789;47.064;15.482;2023-09-19T13:22:43;24.40;99.90
7496;DHT22;3789;47.064;15.482;2023-09-19T13:25:42;24.30;99.90
7496;DHT22;3789;47.064;15.482;2023-09-19T13:28:31;24.10;99.90
7496;DHT22;3789;47.064;15.482;2023-09-19T13:31:01;23.90;99.90
7496;DHT22;3789;47.064;15.482;2023-09-19T13:33:50;23.80;99.90
7496;DHT22;3789;47.064;15.482;2023-09-19T13:36:37;23.70;99.90
7496;DHT22;3789;47.064;15.482;2023-09-19T13:39:08;23.70;99.90
7496;DHT22;3789;47.064;15.482;2023-09-19T13:41:47;23.80;99.90
7496;DHT22;3789;47.064;15.482;2023-09-19T13:44:26;23.80;99.90
7496;DHT22;3789;47.064;15.482;2023-09-19T13:46:54;23.80;99.90
7496;DHT22;3789;47.064;15.482;2023-09-19T13:49:27;23.80;99.90
7496;DHT22;3789;47.064;15.482;2023-09-19T13:51:58;23.90;99.90
7496;DHT22;3789;47.064;15.482;2023-09-19T13:54:33;24.10;99.90
7496;DHT22;3789;47.064;15.482;2023-09-19T13:57:05;24.30;99.90
7496;DHT22;3789;47.064;15.482;2023-09-19T13:59:39;24.50;99.90
7496;DHT22;3789;47.064;15.482;2023-09-19T14:02:07;24.50;99.90
7496;DHT22;3789;47.064;15.482;2023-09-19T14:04:36;24.40;99.90
7496;DHT22;3789;47.064;15.482;2023-09-19T14:07:06;23.90;99.90
7496;DHT22;3789;47.064;15.482;2023-09-19T14:09:44;23.80;99.90
7496;DHT22;3789;47.064;15.482;2023-09-19T14:12:17;23.80;99.90
7496;DHT22;3789;47.064;15.482;2023-09-19T14:14:54;23.60;99.90
7496;DHT22;3789;47.064;15.482;2023-09-19T14:17:30;23.40;99.90
7496;DHT22;3789;47.064;15.482;2023-09-19T14:19:57;23.20;99.90
7496;DHT22;3789;47.064;15.482;2023-09-19T14:22:32;23.10;99.90
7496;DHT22;3789;47.064;15.482;2023-09-19T14:25:26;23.20;99.90
7496;DHT22;3789;47.064;15.482;2023-09-19T14:28:15;23.40;99.90
7496;DHT22;3789;47.064;15.482;2023-09-19T14:30:56;23.50;99.90
7496;DHT22;3789;47.064;15.482;2023-09-19T14:33:25;23.80;99.90
7496;DHT22;3789;47.064;15.482;2023-09-19T14:36:05;23.90;99.90
7496;DHT22;3789;47.064;15.482;2023-09-19T14:38:44;24.10;99.90
7496;DHT22;3789;47.064;15.482;2023-09-19T14:41:13;24.30;99.90
7496;DHT22;3789;47.064;15.482;2023-09-19T14:43:43;24.20;99.90
7496;DHT22;3789;47.064;15.482;2023-09-19T14:46:12;24.30;99.90
7496;DHT22;3789;47.064;15.482;2023-09-19T14:48:50;24.50;99.90
7496;DHT22;3789;47.064;15.482;2023-09-19T14:51:21;24.60;99.90
7496;DHT22;3789;47.064;15.482;2023-09-19T14:53:57;24.70;99.90
7496;DHT22;3789;47.064;15.482;2023-09-19T14:56:28;24.70;99.90
7496;DHT22;3789;47.064;15.482;2023-09-19T14:59:00;24.50;99.90
7496;DHT22;3789;47.064;15.482;2023-09-19T15:01:32;24.50;99.90
7496;DHT22;3789;47.064;15.482;2023-09-19T15:04:10;24.40;99.90
7496;DHT22;3789;47.064;15.482;2023-09-19T15:06:38;24.50;99.90
7496;DHT22;3789;47.064;15.482;2023-09-19T15:09:09;24.30;99.90
7496;DHT22;3789;47.064;15.482;2023-09-19T15:11:39;24.00;99.90
7496;DHT22;3789;47.064;15.482;2023-09-19T15:14:13;23.90;99.90
7496;DHT22;3789;47.064;15.482;2023-09-19T15:16:45;23.90;99.90
7496;DHT22;3789;47.064;15.482;2023-09-19T15:19:15;23.80;99.90
7496;DHT22;3789;47.064;15.482;2023-09-19T15:21:48;23.90;99.90
7496;DHT22;3789;47.064;15.482;2023-09-19T15:24:19;24.00;99.90
7496;DHT22;3789;47.064;15.482;2023-09-19T15:26:57;24.20;99.90
7496;DHT22;3789;47.064;15.482;2023-09-19T15:29:26;24.30;99.90
7496;DHT22;3789;47.064;15.482;2023-09-19T15:31:55;24.30;99.90
7496;DHT22;3789;47.064;15.482;2023-09-19T15:34:30;24.30;99.90
7496;DHT22;3789;47.064;15.482;2023-09-19T15:36:58;24.40;99.90
7496;DHT22;3789;47.064;15.482;2023-09-19T15:39:33;24.50;99.90
7496;DHT22;3789;47.064;15.482;2023-09-19T15:42:11;24.50;99.90
7496;DHT22;3789;47.064;15.482;2023-09-19T15:44:39;24.40;99.90
7496;DHT22;3789;47.064;15.482;2023-09-19T15:47:16;24.30;99.90
7496;DHT22;3789;47.064;15.482;2023-09-19T15:49:47;24.20;99.90
7496;DHT22;3789;47.064;15.482;2023-09-19T15:52:18;24.00;99.90
7496;DHT22;3789;47.064;15.482;2023-09-19T15:54:57;23.90;99.90
7496;DHT22;3789;47.064;15.482;2023-09-19T15:57:28;23.70;99.90
7496;DHT22;3789;47.064;15.482;2023-09-19T16:00:04;23.70;99.90
7496;DHT22;3789;47.064;15.482;2023-09-19T16:02:38;23.60;99.90
7496;DHT22;3789;47.064;15.482;2023-09-19T16:05:07;23.50;99.90
7496;DHT22;3789;47.064;15.482;2023-09-19T16:07:53;23.50;99.90
7496;DHT22;3789;47.064;15.482;2023-09-19T16:10:24;23.50;99.90
7496;DHT22;3789;47.064;15.482;2023-09-19T16:13:03;23.40;99.90
7496;DHT22;3789;47.064;15.482;2023-09-19T16:15:36;23.20;99.90
7496;DHT22;3789;47.064;15.482;2023-09-19T16:18:09;23.10;99.90
7496;DHT22;3789;47.064;15.482;2023-09-19T16:20:40;22.80;99.90
7496;DHT22;3789;47.064;15.482;2023-09-19T16:23:12;22.70;99.90
7496;DHT22;3789;47.064;15.482;2023-09-19T16:25:41;22.60;99.90
7496;DHT22;3789;47.064;15.482;2023-09-19T16:28:11;22.60;99.90
7496;DHT22;3789;47.064;15.482;2023-09-19T16:30:39;22.60;99.90
7496;DHT22;3789;47.064;15.482;2023-09-19T16:33:11;22.60;99.90
7496;DHT22;3789;47.064;15.482;2023-09-19T16:35:43;22.50;99.90
7496;DHT22;3789;47.064;15.482;2023-09-19T16:38:14;22.40;99.90
7496;DHT22;3789;47.064;15.482;2023-09-19T16:40:54;22.30;99.90
7496;DHT22;3789;47.064;15.482;2023-09-19T16:43:36;22.20;99.90
7496;DHT22;3789;47.064;15.482;2023-09-19T16:46:12;22.10;99.90
7496;DHT22;3789;47.064;15.482;2023-09-19T16:48:47;22.10;99.90
7496;DHT22;3789;47.064;15.482;2023-09-19T16:51:32;22.00;99.90
7496;DHT22;3789;47.064;15.482;2023-09-19T16:54:05;22.00;99.90
7496;DHT22;3789;47.064;15.482;2023-09-19T16:56:38;22.00;99.90
7496;DHT22;3789;47.064;15.482;2023-09-19T16:59:08;21.90;99.90
7496;DHT22;3789;47.064;15.482;2023-09-19T17:01:50;21.80;99.90
7496;DHT22;3789;47.064;15.482;2023-09-19T17:04:19;21.80;99.90